Share

Port Lions, AK

Port Lions (KAKKODIA9) Elev 75 ft | 57.87 °N, 152.88 °W | Change Station

Current weather conditions updated 6 seconds ago

Mostly Cloudy
Mostly Cloudy
40.1 °F
Feels Like 34 °F
N
9.2
Wind Variable Wind from ENE
Sunrise 6:53 AM
Sunset 9:31 PM
Moon Waning Gibbous

Today is forecast to be nearly the same temperature as yesterday. Mix of rain and snow tonight.

Pressure 29.45 in
Visibility 10.0 miles
Clouds Few 500 ft
Mostly Cloudy 3200 ft
Mostly Cloudy 20000 ft
Windchill 34 °F
Dew Point 35 °F
Humidity 82%
Rainfall -999.00 in
Snow Depth Not available.
UV 3 out of 16
Pollen Not available.
Air Quality Not available.
Flu Activity Sporadic
METAR PADQ 182053Z 05007KT 10SM FEW005 BKN032 BKN200 04/03 A2945

More Conditions Fewer Conditions

Pressure 29.45 in
Visibility 10.0 miles
Clouds Few 500 ft
Mostly Cloudy 3200 ft
Mostly Cloudy 20000 ft
Windchill 34 °F
Dew Point 35 °F
Humidity 82%
Rainfall -999.00 in
Snow Depth Not available.
UV 3 out of 16
Pollen Not available.
Air Quality Not available.
Flu Activity Sporadic
METAR PADQ 182053Z 05007KT 10SM FEW005 BKN032 BKN200 04/03 A2945

More Conditions Fewer Conditions

10-Day Weather Forecast

Almanac

Astronomy

Apr. 18, 2014 Rise Set
Actual Time 6:53 AM AKDT 9:31 PM AKDT
Civil Twilight 6:09 AM AKDT 10:15 PM AKDT
Nautical Twilight 5:12 AM AKDT 11:13 PM AKDT
Astronomical Twilight 3:56 AM AKDT 12:31 AM AKDT
Moon 12:54 AM AKDT 8:54 AM AKDT
Length of Visible Light 16h 05m
Length of Day
14h 37m
Tomorrow will be 4m 52s longer.
Waning Gibbous, 85% of the Moon is Illuminated
Today
Waning Gibbous
Apr 22
Last Quarter
Apr 29
New
May 6
First Quarter
May 14
Full

Today's Extremes

State Highs State Lows

Community

  • Spring Chickadee
    Spring Chickadee
  • What's for Lunch?
    What's for Lunch?
  • SUNRISE THROUGH THE TREES.
    SUNRISE THROUGH THE TREES.
  • Dog Wood Blossoms
    Dog Wood Blossoms
  • Morning Light
    Morning Light

WunderPhotos

Upload Photos

1,702,517 photos uploaded!

WunderBlogs® & News

Nearby

Snow Depth

Station Depth Elevation
Port Graham 9 in 300 ft
Nuka Glacier 33 in 1250 ft
Mcneil Canyon 10 in 1320 ft
MF Bradley River 22 in 2300 ft
Cooper Lake 22 in 1200 ft

Coastal Water Temperatures

Place Temperature
No Stations Reporting

Earthquake Activity

City Distance Mag. Time & Date
No recent earthquake activity has been reported nearby.
Minimum magnitude displayed is 2.5.

Nearby Weather Stations

Station Location Temp. Windchill Dew Point Humidity Wind Precip. Elev Updated Type
Port Lions, Kodiak, AK 40.1 °F 34 °F 35 °F 82% ENE  at  9.2 mph 0.00 in / hr 75 ft 1:54 PM AKDT Normal
HADS TERROR R AT MOUTH NR KODIAK AK , Port Lions, AK 45 °F 45 °F - - North  at  - 0.00 in / hr 215 ft 1:00 PM AKDT MADIS

Show More Stations Show Fewer Stations

What do you think?

We're not finished. Please let us know what you like, what you don't like, and what you are still missing.